createdAt,value
2022-08-21T00:03:15.957Z,17.59
2022-08-21T00:08:20.336Z,17.54
2022-08-21T00:13:24.724Z,17.54
2022-08-21T00:18:28.555Z,17.49
2022-08-21T00:23:32.480Z,17.44
2022-08-21T00:28:36.917Z,17.41
2022-08-21T00:33:40.343Z,17.38
2022-08-21T00:38:43.284Z,17.34
2022-08-21T00:43:47.730Z,17.31
2022-08-21T00:48:50.813Z,17.27
2022-08-21T00:54:01.996Z,17.21
2022-08-21T00:59:08.040Z,17.19
2022-08-21T01:04:11.227Z,17.14
2022-08-21T01:09:16.164Z,17.09
2022-08-21T01:14:20.728Z,17.06
2022-08-21T01:19:24.807Z,17.01
2022-08-21T01:24:29.409Z,16.94
2022-08-21T01:29:40.339Z,16.88
2022-08-21T01:34:46.195Z,16.84
2022-08-21T01:39:51.219Z,16.80
2022-08-21T01:44:56.127Z,16.73
2022-08-21T01:49:59.434Z,16.70
2022-08-21T01:55:03.953Z,16.65
2022-08-21T02:00:09.525Z,16.62
2022-08-21T02:05:15.680Z,16.59
2022-08-21T02:10:23.485Z,16.53
2022-08-21T02:15:26.530Z,16.49
2022-08-21T02:20:36.277Z,16.41
2022-08-21T02:25:41.321Z,16.40
2022-08-21T02:30:47.916Z,16.34
2022-08-21T02:35:53.064Z,16.30
2022-08-21T02:40:58.252Z,16.26
2022-08-21T02:46:02.031Z,16.18
2022-08-21T02:51:07.505Z,16.14
2022-08-21T02:56:15.305Z,16.10
2022-08-21T03:01:18.846Z,16.08
2022-08-21T03:06:26.073Z,16.03
2022-08-21T03:11:33.306Z,15.99
2022-08-21T03:16:36.282Z,15.96
2022-08-21T03:21:39.311Z,15.93
2022-08-21T03:26:43.912Z,15.90
2022-08-21T03:31:48.453Z,15.84
2022-08-21T03:36:52.621Z,15.79
2022-08-21T03:41:56.920Z,15.73
2022-08-21T03:47:00.363Z,15.70
2022-08-21T03:52:03.612Z,15.67
2022-08-21T03:57:07.997Z,15.66
2022-08-21T04:02:11.655Z,15.62
2022-08-21T04:07:14.784Z,15.60
2022-08-21T04:12:21.667Z,15.55
2022-08-21T04:17:24.777Z,15.49
2022-08-21T04:22:27.969Z,15.44
2022-08-21T04:27:32.614Z,15.38
2022-08-21T04:32:36.015Z,15.36
2022-08-21T04:37:42.258Z,15.34
2022-08-21T04:42:50.630Z,15.32
2022-08-21T04:47:56.705Z,15.33
2022-08-21T04:53:00.309Z,15.30
2022-08-21T04:58:04.746Z,15.29
2022-08-21T05:03:11.709Z,15.27
2022-08-21T05:08:17.915Z,15.32
2022-08-21T05:13:22.678Z,15.32
2022-08-21T05:18:25.822Z,15.36
2022-08-21T05:23:28.777Z,15.37
2022-08-21T05:28:33.302Z,15.43
2022-08-21T05:33:36.382Z,15.46
2022-08-21T05:38:44.462Z,15.49
2022-08-21T05:43:48.916Z,15.55
2022-08-21T05:48:51.861Z,15.57
2022-08-21T05:53:54.976Z,15.64
2022-08-21T05:59:00.695Z,15.70
2022-08-21T06:04:04.104Z,15.76
2022-08-21T06:09:07.668Z,15.81
2022-08-21T06:14:12.462Z,15.86
2022-08-21T06:19:15.565Z,15.93
2022-08-21T06:24:18.642Z,16.01
2022-08-21T06:29:23.562Z,16.06
2022-08-21T06:34:26.571Z,16.12
2022-08-21T06:39:32.427Z,16.18
2022-08-21T06:44:36.824Z,16.30
2022-08-21T06:49:39.842Z,16.40
2022-08-21T06:54:43.790Z,16.54
2022-08-21T06:59:48.201Z,16.66
2022-08-21T07:04:51.949Z,16.78
2022-08-21T07:09:54.859Z,16.88
2022-08-21T07:14:59.398Z,16.98
2022-08-21T07:20:02.436Z,17.09
2022-08-21T07:25:06.325Z,17.20
2022-08-21T07:30:11.725Z,17.32
2022-08-21T07:35:14.936Z,17.42
2022-08-21T07:40:19.546Z,17.46
2022-08-21T07:45:25.550Z,17.64
2022-08-21T07:50:28.778Z,17.88
2022-08-21T07:55:35.091Z,18.12
2022-08-21T08:00:39.739Z,18.49
2022-08-21T08:05:43.004Z,18.73
2022-08-21T08:10:47.343Z,19.13
2022-08-21T08:15:52.841Z,19.49
2022-08-21T08:20:55.788Z,19.91
2022-08-21T08:25:58.822Z,20.34
2022-08-21T08:31:03.746Z,20.60
2022-08-21T08:36:08.302Z,20.91
2022-08-21T08:41:14.506Z,21.20
2022-08-21T08:46:23.177Z,21.53
2022-08-21T08:51:32.171Z,21.92
2022-08-21T08:56:36.200Z,22.12
2022-08-21T09:01:40.748Z,22.18
2022-08-21T09:06:53.747Z,22.40
2022-08-21T09:12:06.311Z,23.11
2022-08-21T09:17:21.755Z,23.41
2022-08-21T09:22:33.158Z,23.48
2022-08-21T09:27:36.760Z,23.63
2022-08-21T09:32:42.380Z,24.25
2022-08-21T09:37:52.662Z,24.27
2022-08-21T09:42:59.007Z,24.49
2022-08-21T09:48:19.870Z,24.58
2022-08-21T09:53:26.122Z,24.58
2022-08-21T09:58:35.328Z,24.25
2022-08-21T10:03:39.758Z,24.47
2022-08-21T10:08:43.397Z,24.98
2022-08-21T10:13:56.735Z,25.37
2022-08-21T10:19:16.927Z,25.67
2022-08-21T10:24:30.663Z,25.95
2022-08-21T10:29:45.083Z,26.24
2022-08-21T10:35:02.119Z,26.31
2022-08-21T10:40:17.678Z,26.33
2022-08-21T10:45:34.888Z,26.31
2022-08-21T10:50:46.672Z,26.33
2022-08-21T10:55:54.426Z,26.71
2022-08-21T11:01:01.100Z,26.79
2022-08-21T11:06:11.530Z,26.83
2022-08-21T11:11:22.202Z,26.97
2022-08-21T11:16:31.709Z,26.99
2022-08-21T11:21:41.427Z,27.29
2022-08-21T11:26:51.247Z,27.33
2022-08-21T11:32:10.457Z,27.37
2022-08-21T11:37:21.791Z,27.20
2022-08-21T11:42:33.490Z,27.17
2022-08-21T11:47:53.980Z,27.02
2022-08-21T11:53:03.998Z,27.01
2022-08-21T11:58:12.636Z,27.14
2022-08-21T12:03:18.935Z,27.46
2022-08-21T12:08:32.327Z,27.39
2022-08-21T12:13:42.297Z,27.21
2022-08-21T12:18:46.025Z,27.43
2022-08-21T12:24:02.301Z,27.72
2022-08-21T12:29:14.726Z,28.46
2022-08-21T12:34:18.617Z,28.33
2022-08-21T12:39:26.400Z,28.40
2022-08-21T12:44:36.820Z,28.70
2022-08-21T12:49:52.013Z,28.80
2022-08-21T12:54:56.372Z,29.11
2022-08-21T13:00:01.737Z,29.05
2022-08-21T13:05:08.546Z,28.49
2022-08-21T13:10:21.443Z,28.71
2022-08-21T13:15:33.063Z,28.85
2022-08-21T13:20:39.351Z,28.72
2022-08-21T13:25:43.690Z,28.66
2022-08-21T13:30:50.790Z,28.74
2022-08-21T13:36:11.098Z,28.71
2022-08-21T13:41:23.528Z,28.87
2022-08-21T13:46:29.637Z,29.08
2022-08-21T13:51:33.843Z,29.12
2022-08-21T13:56:46.391Z,28.63
2022-08-21T14:01:55.724Z,28.72
2022-08-21T14:06:59.114Z,28.72
2022-08-21T14:12:23.183Z,28.89
2022-08-21T14:17:36.343Z,28.46
2022-08-21T14:22:42.722Z,28.38
2022-08-21T14:27:53.241Z,28.33
2022-08-21T14:32:56.336Z,28.38
2022-08-21T14:37:59.661Z,28.06
2022-08-21T14:43:04.066Z,27.72
2022-08-21T14:48:07.087Z,27.68
2022-08-21T14:53:11.303Z,27.60
2022-08-21T14:58:16.257Z,27.45
2022-08-21T15:03:19.779Z,27.51
2022-08-21T15:08:23.010Z,27.43
2022-08-21T15:13:27.670Z,28.23
2022-08-21T15:18:32.176Z,28.44
2022-08-21T15:23:35.978Z,28.67
2022-08-21T15:28:44.417Z,28.71
2022-08-21T15:33:47.596Z,28.62
2022-08-21T15:38:50.857Z,28.60
2022-08-21T15:43:55.529Z,28.59
2022-08-21T15:48:59.978Z,28.29
2022-08-21T15:54:03.435Z,27.89
2022-08-21T15:59:10.039Z,27.75
2022-08-21T16:04:17.610Z,27.50
2022-08-21T16:09:20.917Z,27.24
2022-08-21T16:14:25.382Z,27.15
2022-08-21T16:19:30.993Z,26.70
2022-08-21T16:24:34.249Z,26.46
2022-08-21T16:29:39.698Z,26.52
2022-08-21T16:34:48.938Z,26.30
2022-08-21T16:39:52.129Z,25.84
2022-08-21T16:44:57.879Z,26.03
2022-08-21T16:50:01.053Z,25.83
2022-08-21T16:55:05.353Z,25.68
2022-08-21T17:00:12.271Z,25.48
2022-08-21T17:05:16.361Z,25.42
2022-08-21T17:10:20.227Z,25.28
2022-08-21T17:15:30.722Z,24.94
2022-08-21T17:20:34.443Z,24.89
2022-08-21T17:25:40.920Z,24.64
2022-08-21T17:30:46.320Z,24.31
2022-08-21T17:35:50.432Z,24.27
2022-08-21T17:40:53.501Z,24.34
2022-08-21T17:45:57.966Z,24.33
2022-08-21T17:51:01.010Z,24.01
2022-08-21T17:56:04.573Z,23.91
2022-08-21T18:01:09.129Z,23.76
2022-08-21T18:06:15.555Z,23.68
2022-08-21T18:11:24.182Z,23.69
2022-08-21T18:16:30.427Z,23.48
2022-08-21T18:21:33.566Z,23.40
2022-08-21T18:26:39.756Z,23.36
2022-08-21T18:31:46.366Z,23.19
2022-08-21T18:36:50.341Z,23.10
2022-08-21T18:41:54.502Z,23.12
2022-08-21T18:47:01.297Z,23.05
2022-08-21T18:52:05.752Z,22.89
2022-08-21T18:57:09.144Z,22.85
2022-08-21T19:02:13.875Z,22.76
2022-08-21T19:07:19.741Z,22.61
2022-08-21T19:12:26.033Z,22.49
2022-08-21T19:17:34.009Z,22.43
2022-08-21T19:22:38.972Z,22.37
2022-08-21T19:27:43.265Z,22.38
2022-08-21T19:32:49.815Z,22.39
2022-08-21T19:37:53.080Z,22.38
2022-08-21T19:42:56.941Z,22.32
2022-08-21T19:48:05.571Z,22.29
2022-08-21T19:53:12.242Z,22.22
2022-08-21T19:58:36.007Z,22.13
2022-08-21T20:03:40.479Z,22.05
2022-08-21T20:08:48.226Z,21.95
2022-08-21T20:13:51.450Z,21.86
2022-08-21T20:18:57.476Z,21.73
2022-08-21T20:24:00.984Z,21.64
2022-08-21T20:29:05.427Z,21.54
2022-08-21T20:34:11.670Z,21.48
2022-08-21T20:39:19.137Z,21.42
2022-08-21T20:44:30.757Z,21.36
2022-08-21T20:49:43.017Z,21.31
2022-08-21T20:54:52.734Z,21.31
2022-08-21T21:00:02.113Z,21.29
2022-08-21T21:05:18.584Z,21.25
2022-08-21T21:10:30.146Z,21.17
2022-08-21T21:15:34.637Z,21.12
2022-08-21T21:20:46.026Z,21.06
2022-08-21T21:25:57.022Z,21.04
2022-08-21T21:31:00.167Z,21.02
2022-08-21T21:36:20.700Z,21.00
2022-08-21T21:41:32.174Z,20.95
2022-08-21T21:46:48.672Z,21.00
2022-08-21T21:52:01.591Z,20.97
2022-08-21T21:57:16.404Z,20.92
2022-08-21T22:02:32.178Z,20.85
2022-08-21T22:07:40.825Z,20.73
2022-08-21T22:12:53.887Z,20.62
2022-08-21T22:18:02.409Z,20.52
2022-08-21T22:28:39.357Z,20.43
2022-08-21T22:33:42.824Z,20.46
2022-08-21T22:38:47.894Z,20.48
2022-08-21T22:43:57.543Z,20.49
2022-08-21T22:49:08.131Z,20.39
2022-08-21T22:54:21.915Z,20.28
2022-08-21T22:59:28.065Z,20.17
2022-08-21T23:04:33.699Z,20.09
2022-08-21T23:09:45.996Z,20.06
2022-08-21T23:20:21.649Z,20.16
2022-08-21T23:25:52.414Z,20.24
2022-08-21T23:31:13.960Z,20.26
2022-08-21T23:36:41.517Z,20.26
2022-08-21T23:41:56.721Z,20.23
2022-08-21T23:47:14.686Z,20.20
2022-08-21T23:52:33.220Z,20.19
2022-08-21T23:57:52.932Z,20.14
